createdAt,value
2023-03-17T06:58:48.090Z,8.00
2023-03-17T07:01:14.904Z,10.00
2023-03-17T07:03:42.010Z,11.10
2023-03-17T07:06:08.828Z,11.50
2023-03-17T07:08:36.473Z,12.50
2023-03-17T07:11:04.260Z,13.10
2023-03-17T07:13:35.437Z,12.90
2023-03-17T07:16:03.117Z,12.70
2023-03-17T07:18:32.090Z,14.20
2023-03-17T07:21:02.194Z,15.70
2023-03-17T07:23:29.952Z,16.30
2023-03-17T07:26:00.392Z,16.80
2023-03-17T07:28:27.095Z,15.40
2023-03-17T07:30:53.806Z,15.00
2023-03-17T07:33:21.216Z,14.70
2023-03-17T07:35:49.515Z,14.90
2023-03-17T07:38:18.589Z,14.90
2023-03-17T07:40:49.103Z,14.90
2023-03-17T07:43:16.735Z,15.50
2023-03-17T07:45:44.622Z,16.50
2023-03-17T07:48:11.370Z,16.70
2023-03-17T07:50:38.631Z,16.90
2023-03-17T07:53:05.430Z,17.00
2023-03-17T07:55:32.916Z,17.10
2023-03-17T07:58:00.010Z,16.70
2023-03-17T08:00:29.188Z,16.90
2023-03-17T08:03:08.887Z,17.10
2023-03-17T08:05:39.050Z,17.20
2023-03-17T08:08:06.560Z,16.90
2023-03-17T08:10:33.911Z,16.50
2023-03-17T08:13:00.864Z,15.80
2023-03-17T08:15:27.748Z,16.00
2023-03-17T08:17:54.457Z,16.60
2023-03-17T08:20:21.769Z,18.20
2023-03-17T08:22:48.446Z,19.10
2023-03-17T08:25:15.337Z,17.40
2023-03-17T08:27:42.540Z,16.50
2023-03-17T08:30:10.010Z,16.60
2023-03-17T08:32:36.939Z,16.60
2023-03-17T08:35:06.272Z,16.90
2023-03-17T08:37:33.165Z,17.30
2023-03-17T08:40:00.977Z,17.60
2023-03-17T08:42:27.701Z,16.90
2023-03-17T08:44:54.350Z,15.90
2023-03-17T08:47:21.700Z,15.20
2023-03-17T08:49:48.423Z,15.50
2023-03-17T08:52:15.383Z,16.10
2023-03-17T08:54:42.354Z,16.00
2023-03-17T08:57:09.039Z,15.70
2023-03-17T08:59:35.724Z,15.30
2023-03-17T09:02:02.427Z,15.20
2023-03-17T09:04:29.095Z,15.40
2023-03-17T09:07:03.256Z,15.70
2023-03-17T09:09:31.365Z,15.60
2023-03-17T09:11:58.111Z,15.60
2023-03-17T09:14:25.093Z,15.90
2023-03-17T09:16:52.424Z,16.60
2023-03-17T09:19:19.468Z,17.50
2023-03-17T09:21:46.233Z,18.20
2023-03-17T09:24:13.657Z,18.50
2023-03-17T09:26:41.041Z,19.50
2023-03-17T09:29:07.822Z,19.80
2023-03-17T09:31:36.564Z,19.90
2023-03-17T09:34:05.133Z,19.80
2023-03-17T09:36:33.168Z,19.90
2023-03-17T09:39:01.035Z,19.90
2023-03-17T09:41:30.672Z,20.10
2023-03-17T09:44:16.064Z,20.40
2023-03-17T09:46:48.876Z,20.50
2023-03-17T09:49:19.927Z,21.30
2023-03-17T09:51:47.830Z,21.70
2023-03-17T09:54:26.685Z,21.60
2023-03-17T09:57:13.211Z,20.80
2023-03-17T09:59:47.304Z,20.60
2023-03-17T10:02:30.781Z,20.50
2023-03-17T10:04:58.086Z,20.80
2023-03-17T10:07:38.143Z,20.20
2023-03-17T10:10:12.908Z,19.60
2023-03-17T10:12:54.000Z,19.40
2023-03-17T10:15:34.192Z,19.00
2023-03-17T10:18:03.005Z,18.90
2023-03-17T10:20:34.293Z,19.30
2023-03-17T10:23:04.954Z,19.70
2023-03-17T10:25:36.493Z,20.10
2023-03-17T10:28:30.654Z,20.40
2023-03-17T10:31:14.696Z,20.90
2023-03-17T10:33:41.705Z,20.80
2023-03-17T10:36:10.909Z,20.60
2023-03-17T10:38:37.677Z,20.30
2023-03-17T10:41:16.640Z,20.10
2023-03-17T10:43:53.586Z,20.00
2023-03-17T10:46:24.245Z,20.60
2023-03-17T10:48:54.260Z,20.80
2023-03-17T10:51:27.302Z,19.90
2023-03-17T10:53:54.158Z,20.20
2023-03-17T10:56:27.151Z,20.10
2023-03-17T10:58:57.542Z,20.30
2023-03-17T11:02:57.277Z,20.10
2023-03-17T11:54:03.055Z,21.00
2023-03-17T11:57:15.884Z,20.20
2023-03-17T12:00:50.432Z,21.10
2023-03-17T12:19:36.864Z,21.00
2023-03-17T12:22:26.151Z,21.50
2023-03-17T12:25:10.909Z,21.30
2023-03-17T12:28:00.188Z,21.50
2023-03-17T12:30:45.403Z,21.70
2023-03-17T12:33:21.275Z,21.50
2023-03-17T12:35:48.135Z,21.50
2023-03-17T12:38:29.739Z,21.50
2023-03-17T12:41:38.234Z,21.50
2023-03-17T12:44:38.011Z,21.50
2023-03-17T12:47:43.779Z,21.20
2023-03-17T12:50:37.997Z,21.60
2023-03-17T12:53:04.703Z,21.90
2023-03-17T12:55:33.832Z,21.50
2023-03-17T12:58:20.188Z,21.60
2023-03-17T13:01:07.093Z,21.20
2023-03-17T13:03:37.044Z,21.00
2023-03-17T13:06:08.552Z,20.80
2023-03-17T13:08:43.386Z,20.60
2023-03-17T13:11:27.241Z,20.70
2023-03-17T13:13:54.389Z,20.50
2023-03-17T13:16:39.299Z,19.90
2023-03-17T13:19:21.163Z,19.70
2023-03-17T13:22:04.246Z,19.50
2023-03-17T13:24:53.114Z,19.20
2023-03-17T13:27:31.797Z,19.00
2023-03-17T13:30:25.708Z,18.90
2023-03-17T13:32:57.260Z,18.80
2023-03-17T13:35:45.347Z,18.80
2023-03-17T13:38:42.468Z,18.90
2023-03-17T13:41:27.223Z,18.90
2023-03-17T13:43:56.993Z,18.90
2023-03-17T13:46:39.612Z,18.80
2023-03-17T13:49:18.906Z,18.60
2023-03-17T13:52:00.280Z,18.50
2023-03-17T13:54:31.226Z,18.00
2023-03-17T13:57:22.925Z,17.70
2023-03-17T14:00:17.030Z,17.70
2023-03-17T14:02:48.280Z,17.60
2023-03-17T14:05:30.631Z,17.70
2023-03-17T14:08:01.635Z,17.70
2023-03-17T14:10:32.266Z,17.60
2023-03-17T14:13:02.967Z,17.40
2023-03-17T14:15:37.813Z,17.30
2023-03-17T14:18:15.940Z,17.20
2023-03-17T14:21:11.524Z,17.10
2023-03-17T14:23:39.176Z,17.10
2023-03-17T14:26:10.168Z,17.00
2023-03-17T14:28:37.399Z,17.10
2023-03-17T14:31:07.206Z,17.20
2023-03-17T14:33:39.898Z,17.30
2023-03-17T14:36:09.341Z,17.30
2023-03-17T14:38:46.209Z,17.20
2023-03-17T14:41:19.917Z,17.20
2023-03-17T14:43:47.398Z,17.10
2023-03-17T14:46:22.356Z,17.00
2023-03-17T14:48:52.290Z,17.10
2023-03-17T14:51:38.331Z,17.10
2023-03-17T14:54:19.211Z,17.20
2023-03-17T14:57:01.734Z,17.20
2023-03-17T14:59:30.910Z,17.20
2023-03-17T15:02:14.634Z,17.00
2023-03-17T15:04:52.347Z,17.00
2023-03-17T15:07:35.819Z,16.90
2023-03-17T15:10:03.444Z,16.80
2023-03-17T15:12:31.126Z,16.80
2023-03-17T15:15:04.520Z,16.80
2023-03-17T15:17:33.568Z,16.80
2023-03-17T15:20:06.367Z,16.70
2023-03-17T15:22:35.938Z,16.70
2023-03-17T15:25:18.047Z,16.60
2023-03-17T15:27:45.580Z,16.60
2023-03-17T15:30:12.981Z,16.40
2023-03-17T15:32:39.981Z,16.30
2023-03-17T15:35:11.359Z,16.30
2023-03-17T15:37:38.435Z,16.10
2023-03-17T15:40:06.204Z,16.00
2023-03-17T15:42:35.666Z,15.90
2023-03-17T15:45:03.782Z,15.70
2023-03-17T15:47:36.882Z,15.60
2023-03-17T15:50:17.868Z,15.50
2023-03-17T15:52:45.834Z,15.40
2023-03-17T15:55:21.865Z,15.30
2023-03-17T15:57:55.158Z,15.20
2023-03-17T16:00:24.647Z,15.10
2023-03-17T16:02:57.239Z,15.10
2023-03-17T16:05:27.382Z,15.00
2023-03-17T16:07:54.748Z,14.90
2023-03-17T16:10:22.859Z,14.80
2023-03-17T16:12:50.310Z,14.70
2023-03-17T16:15:23.151Z,14.60
2023-03-17T16:17:53.596Z,14.50
2023-03-17T16:20:22.418Z,14.40
2023-03-17T16:22:51.066Z,14.30
2023-03-17T16:25:21.840Z,14.30
2023-03-17T16:27:49.336Z,14.20
2023-03-17T16:30:22.727Z,14.10
2023-03-17T16:32:52.624Z,14.00
2023-03-17T16:35:22.256Z,13.90
2023-03-17T16:37:52.341Z,13.90
2023-03-17T16:40:37.052Z,13.90
2023-03-17T16:43:26.020Z,13.80
2023-03-17T16:45:55.955Z,13.80
2023-03-17T16:48:22.758Z,13.70
2023-03-17T16:50:50.344Z,13.70
2023-03-17T16:53:17.541Z,13.60
2023-03-17T16:55:44.619Z,13.50
2023-03-17T16:58:19.054Z,13.40
2023-03-17T17:00:47.509Z,13.30
2023-03-17T17:03:14.691Z,13.30
2023-03-17T17:05:42.079Z,13.20
2023-03-17T17:08:09.027Z,13.10
2023-03-17T17:10:37.020Z,13.10
2023-03-17T17:13:07.620Z,13.10
2023-03-17T17:15:36.302Z,13.00
2023-03-17T17:18:24.355Z,12.90
2023-03-17T17:20:52.838Z,12.90
2023-03-17T17:23:25.974Z,12.70
2023-03-17T17:25:53.517Z,12.60
2023-03-17T17:28:22.834Z,12.60
2023-03-17T17:30:50.648Z,12.50
2023-03-17T17:33:19.168Z,12.40
2023-03-17T17:35:47.827Z,12.30
2023-03-17T17:38:23.817Z,12.30
2023-03-17T17:40:50.637Z,12.30
2023-03-17T17:43:18.227Z,12.40
2023-03-17T17:45:48.628Z,12.40
2023-03-17T17:48:18.179Z,12.40
2023-03-17T17:50:45.683Z,12.40
2023-03-17T17:53:13.337Z,12.40
2023-03-17T17:55:42.112Z,12.40
2023-03-17T17:58:12.493Z,12.40
2023-03-17T18:00:39.165Z,12.40
2023-03-17T18:03:05.906Z,12.30
2023-03-17T18:05:38.348Z,12.30
2023-03-17T18:08:05.368Z,12.20
2023-03-17T18:10:32.585Z,12.10
2023-03-17T18:12:59.591Z,12.00
2023-03-17T18:15:27.200Z,11.80
2023-03-17T18:17:54.679Z,11.70
2023-03-17T18:20:22.739Z,11.70
2023-03-17T18:22:50.263Z,11.60
2023-03-17T18:25:17.375Z,11.50
2023-03-17T18:27:44.417Z,11.40
2023-03-17T18:30:14.291Z,11.40
2023-03-17T18:32:42.985Z,11.40
2023-03-17T18:35:14.529Z,11.30
2023-03-17T18:37:41.852Z,11.20
2023-03-17T18:40:15.077Z,11.10
2023-03-17T18:42:43.491Z,11.00
2023-03-17T18:45:11.627Z,10.90
2023-03-17T18:47:39.071Z,10.90
2023-03-17T18:50:08.048Z,10.90
2023-03-17T18:52:38.364Z,10.80
2023-03-17T18:55:06.603Z,10.70
2023-03-17T18:57:33.562Z,10.70
2023-03-17T19:00:00.263Z,10.60
2023-03-17T19:02:26.914Z,10.50
2023-03-17T19:04:53.596Z,10.30
2023-03-17T19:07:22.198Z,10.20
2023-03-17T19:09:49.901Z,10.20
2023-03-17T19:12:20.800Z,10.10
2023-03-17T19:14:58.471Z,9.90
2023-03-17T19:18:02.534Z,9.80
2023-03-17T19:20:59.056Z,9.70
2023-03-17T19:23:45.684Z,9.50
2023-03-17T19:26:49.530Z,9.40
2023-03-17T19:33:15.263Z,9.00
